sensor_id;sensor_type;location;lat;lon;timestamp;temperature;humidity
11304;DHT22;5707;49.588;12.148;2022-08-03T00:00:00;15.10;99.90
11304;DHT22;5707;49.588;12.148;2022-08-03T00:02:40;15.10;99.90
11304;DHT22;5707;49.588;12.148;2022-08-03T00:05:20;15.10;99.90
11304;DHT22;5707;49.588;12.148;2022-08-03T00:08:00;15.10;99.90
11304;DHT22;5707;49.588;12.148;2022-08-03T00:10:39;14.90;99.90
11304;DHT22;5707;49.588;12.148;2022-08-03T00:13:19;14.90;99.90
11304;DHT22;5707;49.588;12.148;2022-08-03T00:15:59;14.80;99.90
11304;DHT22;5707;49.588;12.148;2022-08-03T00:18:39;14.80;99.90
11304;DHT22;5707;49.588;12.148;2022-08-03T00:21:19;14.70;99.90
11304;DHT22;5707;49.588;12.148;2022-08-03T00:23:59;14.70;99.90
11304;DHT22;5707;49.588;12.148;2022-08-03T00:26:38;14.70;99.90
11304;DHT22;5707;49.588;12.148;2022-08-03T00:29:18;14.70;99.90
11304;DHT22;5707;49.588;12.148;2022-08-03T00:31:58;14.70;99.90
11304;DHT22;5707;49.588;12.148;2022-08-03T00:34:38;14.60;99.90
11304;DHT22;5707;49.588;12.148;2022-08-03T00:37:18;14.60;99.90
11304;DHT22;5707;49.588;12.148;2022-08-03T00:39:57;14.50;99.90
11304;DHT22;5707;49.588;12.148;2022-08-03T00:42:46;14.50;99.90
11304;DHT22;5707;49.588;12.148;2022-08-03T00:45:27;14.50;99.90
11304;DHT22;5707;49.588;12.148;2022-08-03T00:48:09;14.50;99.90
11304;DHT22;5707;49.588;12.148;2022-08-03T00:50:50;14.40;99.90
11304;DHT22;5707;49.588;12.148;2022-08-03T00:53:29;14.30;99.90
11304;DHT22;5707;49.588;12.148;2022-08-03T00:56:11;14.30;99.90
11304;DHT22;5707;49.588;12.148;2022-08-03T00:58:51;14.30;99.90
11304;DHT22;5707;49.588;12.148;2022-08-03T01:01:32;14.30;99.90
11304;DHT22;5707;49.588;12.148;2022-08-03T01:04:12;14.30;99.90
11304;DHT22;5707;49.588;12.148;2022-08-03T01:07:06;14.30;99.90
11304;DHT22;5707;49.588;12.148;2022-08-03T01:09:52;14.20;99.90
11304;DHT22;5707;49.588;12.148;2022-08-03T01:12:37;14.20;99.90
11304;DHT22;5707;49.588;12.148;2022-08-03T01:15:18;14.10;99.90
11304;DHT22;5707;49.588;12.148;2022-08-03T01:18:02;14.10;99.90
11304;DHT22;5707;49.588;12.148;2022-08-03T01:20:43;14.10;99.90
11304;DHT22;5707;49.588;12.148;2022-08-03T01:23:30;14.10;99.90
11304;DHT22;5707;49.588;12.148;2022-08-03T01:26:21;14.10;99.90
11304;DHT22;5707;49.588;12.148;2022-08-03T01:29:11;14.10;99.90
11304;DHT22;5707;49.588;12.148;2022-08-03T01:32:01;14.10;99.90
11304;DHT22;5707;49.588;12.148;2022-08-03T01:34:42;14.00;99.90
11304;DHT22;5707;49.588;12.148;2022-08-03T01:37:23;14.00;99.90
11304;DHT22;5707;49.588;12.148;2022-08-03T01:40:06;14.00;99.90
11304;DHT22;5707;49.588;12.148;2022-08-03T01:42:47;14.00;99.90
11304;DHT22;5707;49.588;12.148;2022-08-03T01:45:28;14.00;99.90
11304;DHT22;5707;49.588;12.148;2022-08-03T01:48:08;13.90;99.90
11304;DHT22;5707;49.588;12.148;2022-08-03T01:50:50;13.80;99.90
11304;DHT22;5707;49.588;12.148;2022-08-03T01:53:31;13.80;99.90
11304;DHT22;5707;49.588;12.148;2022-08-03T01:56:12;13.80;99.90
11304;DHT22;5707;49.588;12.148;2022-08-03T01:58:56;13.70;99.90
11304;DHT22;5707;49.588;12.148;2022-08-03T02:01:37;13.70;99.90
11304;DHT22;5707;49.588;12.148;2022-08-03T02:04:17;13.70;99.90
11304;DHT22;5707;49.588;12.148;2022-08-03T02:06:57;13.70;99.90
11304;DHT22;5707;49.588;12.148;2022-08-03T02:09:38;13.70;99.90
11304;DHT22;5707;49.588;12.148;2022-08-03T02:12:20;13.70;99.90
11304;DHT22;5707;49.588;12.148;2022-08-03T02:15:01;13.60;99.90
11304;DHT22;5707;49.588;12.148;2022-08-03T02:17:41;13.70;99.90
11304;DHT22;5707;49.588;12.148;2022-08-03T02:20:22;13.70;99.90
11304;DHT22;5707;49.588;12.148;2022-08-03T02:23:04;13.70;99.90
11304;DHT22;5707;49.588;12.148;2022-08-03T02:25:46;13.60;99.90
11304;DHT22;5707;49.588;12.148;2022-08-03T02:28:28;13.50;99.90
11304;DHT22;5707;49.588;12.148;2022-08-03T02:31:11;13.40;99.90
11304;DHT22;5707;49.588;12.148;2022-08-03T02:33:52;13.40;99.90
11304;DHT22;5707;49.588;12.148;2022-08-03T02:36:33;13.40;99.90
11304;DHT22;5707;49.588;12.148;2022-08-03T02:39:14;13.30;99.90
11304;DHT22;5707;49.588;12.148;2022-08-03T02:41:55;13.30;99.90
11304;DHT22;5707;49.588;12.148;2022-08-03T02:44:40;13.30;99.90
11304;DHT22;5707;49.588;12.148;2022-08-03T02:47:24;13.20;99.90
11304;DHT22;5707;49.588;12.148;2022-08-03T02:50:07;13.10;99.90
11304;DHT22;5707;49.588;12.148;2022-08-03T02:52:47;13.10;99.90
11304;DHT22;5707;49.588;12.148;2022-08-03T02:55:29;13.10;99.90
11304;DHT22;5707;49.588;12.148;2022-08-03T02:58:12;13.10;99.90
11304;DHT22;5707;49.588;12.148;2022-08-03T03:00:53;13.10;99.90
11304;DHT22;5707;49.588;12.148;2022-08-03T03:03:36;13.10;99.90
11304;DHT22;5707;49.588;12.148;2022-08-03T03:06:16;13.10;99.90
11304;DHT22;5707;49.588;12.148;2022-08-03T03:08:59;13.10;99.90
11304;DHT22;5707;49.588;12.148;2022-08-03T03:11:40;13.10;99.90
11304;DHT22;5707;49.588;12.148;2022-08-03T03:14:20;13.10;99.90
11304;DHT22;5707;49.588;12.148;2022-08-03T03:17:00;13.10;99.90
11304;DHT22;5707;49.588;12.148;2022-08-03T03:19:40;13.00;99.90
11304;DHT22;5707;49.588;12.148;2022-08-03T03:22:23;13.00;99.90
11304;DHT22;5707;49.588;12.148;2022-08-03T03:25:04;13.00;99.90
11304;DHT22;5707;49.588;12.148;2022-08-03T03:27:44;13.00;99.90
11304;DHT22;5707;49.588;12.148;2022-08-03T03:30:26;13.00;99.90
11304;DHT22;5707;49.588;12.148;2022-08-03T03:33:05;13.00;99.90
11304;DHT22;5707;49.588;12.148;2022-08-03T03:35:45;13.00;99.90
11304;DHT22;5707;49.588;12.148;2022-08-03T03:38:25;13.00;99.90
11304;DHT22;5707;49.588;12.148;2022-08-03T03:41:05;13.00;99.90
11304;DHT22;5707;49.588;12.148;2022-08-03T03:43:45;13.00;99.90
11304;DHT22;5707;49.588;12.148;2022-08-03T03:46:25;13.00;99.90
11304;DHT22;5707;49.588;12.148;2022-08-03T03:49:05;13.00;99.90
11304;DHT22;5707;49.588;12.148;2022-08-03T03:51:46;13.00;99.90
11304;DHT22;5707;49.588;12.148;2022-08-03T03:54:26;13.00;99.90
11304;DHT22;5707;49.588;12.148;2022-08-03T03:57:06;13.00;99.90
11304;DHT22;5707;49.588;12.148;2022-08-03T03:59:45;13.10;99.90
11304;DHT22;5707;49.588;12.148;2022-08-03T04:02:27;13.10;99.90
11304;DHT22;5707;49.588;12.148;2022-08-03T04:05:07;13.20;99.90
11304;DHT22;5707;49.588;12.148;2022-08-03T04:08:06;13.20;99.90
11304;DHT22;5707;49.588;12.148;2022-08-03T04:11:06;13.30;99.90
11304;DHT22;5707;49.588;12.148;2022-08-03T04:13:49;13.30;99.90
11304;DHT22;5707;49.588;12.148;2022-08-03T04:16:31;13.30;99.90
11304;DHT22;5707;49.588;12.148;2022-08-03T04:19:14;13.40;99.90
11304;DHT22;5707;49.588;12.148;2022-08-03T04:21:56;13.50;99.90
11304;DHT22;5707;49.588;12.148;2022-08-03T04:24:40;13.60;99.90
11304;DHT22;5707;49.588;12.148;2022-08-03T04:27:22;13.70;99.90
11304;DHT22;5707;49.588;12.148;2022-08-03T04:30:04;13.80;99.90
11304;DHT22;5707;49.588;12.148;2022-08-03T04:32:44;14.00;99.90
11304;DHT22;5707;49.588;12.148;2022-08-03T04:35:30;14.20;99.90
11304;DHT22;5707;49.588;12.148;2022-08-03T04:38:12;14.30;99.90
11304;DHT22;5707;49.588;12.148;2022-08-03T04:40:53;14.40;99.90
11304;DHT22;5707;49.588;12.148;2022-08-03T04:43:35;14.60;99.90
11304;DHT22;5707;49.588;12.148;2022-08-03T04:46:18;14.70;99.90
11304;DHT22;5707;49.588;12.148;2022-08-03T04:49:01;14.90;99.90
11304;DHT22;5707;49.588;12.148;2022-08-03T04:51:41;15.00;99.90
11304;DHT22;5707;49.588;12.148;2022-08-03T04:54:20;15.20;99.90
11304;DHT22;5707;49.588;12.148;2022-08-03T04:57:00;15.60;99.90
11304;DHT22;5707;49.588;12.148;2022-08-03T04:59:40;16.60;99.90
11304;DHT22;5707;49.588;12.148;2022-08-03T05:02:20;17.70;99.90
11304;DHT22;5707;49.588;12.148;2022-08-03T05:05:00;18.70;99.90
11304;DHT22;5707;49.588;12.148;2022-08-03T05:07:40;19.40;99.90
11304;DHT22;5707;49.588;12.148;2022-08-03T05:10:19;19.90;99.90
11304;DHT22;5707;49.588;12.148;2022-08-03T05:12:59;20.20;99.90
11304;DHT22;5707;49.588;12.148;2022-08-03T05:15:39;20.50;99.90
11304;DHT22;5707;49.588;12.148;2022-08-03T05:18:19;20.90;99.90
11304;DHT22;5707;49.588;12.148;2022-08-03T05:20:59;21.10;99.90
11304;DHT22;5707;49.588;12.148;2022-08-03T05:23:39;21.10;99.90
11304;DHT22;5707;49.588;12.148;2022-08-03T05:26:18;21.00;99.90
11304;DHT22;5707;49.588;12.148;2022-08-03T05:28:58;20.50;99.90
11304;DHT22;5707;49.588;12.148;2022-08-03T05:31:38;20.00;99.90
11304;DHT22;5707;49.588;12.148;2022-08-03T05:34:37;19.90;99.90
11304;DHT22;5707;49.588;12.148;2022-08-03T05:37:17;19.70;99.90
11304;DHT22;5707;49.588;12.148;2022-08-03T05:39:57;19.60;99.90
11304;DHT22;5707;49.588;12.148;2022-08-03T05:42:37;19.50;99.90
11304;DHT22;5707;49.588;12.148;2022-08-03T05:45:16;19.60;99.90
11304;DHT22;5707;49.588;12.148;2022-08-03T05:47:56;19.60;99.90
11304;DHT22;5707;49.588;12.148;2022-08-03T05:50:36;19.70;99.90
11304;DHT22;5707;49.588;12.148;2022-08-03T05:53:16;19.90;99.90
11304;DHT22;5707;49.588;12.148;2022-08-03T05:55:56;20.00;99.90
11304;DHT22;5707;49.588;12.148;2022-08-03T05:58:35;20.10;99.90
11304;DHT22;5707;49.588;12.148;2022-08-03T06:01:15;20.20;99.90
11304;DHT22;5707;49.588;12.148;2022-08-03T06:03:55;20.40;99.90
11304;DHT22;5707;49.588;12.148;2022-08-03T06:06:35;20.50;99.90
11304;DHT22;5707;49.588;12.148;2022-08-03T06:09:15;20.50;99.90
11304;DHT22;5707;49.588;12.148;2022-08-03T06:11:55;20.60;99.90
11304;DHT22;5707;49.588;12.148;2022-08-03T06:14:34;20.60;99.90
11304;DHT22;5707;49.588;12.148;2022-08-03T06:17:14;20.50;99.90
11304;DHT22;5707;49.588;12.148;2022-08-03T06:19:54;20.60;99.90
11304;DHT22;5707;49.588;12.148;2022-08-03T06:22:34;20.80;99.90
11304;DHT22;5707;49.588;12.148;2022-08-03T06:25:14;21.00;99.90
11304;DHT22;5707;49.588;12.148;2022-08-03T06:27:54;21.20;99.90
11304;DHT22;5707;49.588;12.148;2022-08-03T06:30:33;21.30;99.90
11304;DHT22;5707;49.588;12.148;2022-08-03T06:33:13;21.40;99.90
11304;DHT22;5707;49.588;12.148;2022-08-03T06:35:55;21.50;99.90
11304;DHT22;5707;49.588;12.148;2022-08-03T06:38:34;21.60;99.90
11304;DHT22;5707;49.588;12.148;2022-08-03T06:41:14;21.80;99.90
11304;DHT22;5707;49.588;12.148;2022-08-03T06:43:54;21.90;99.90
11304;DHT22;5707;49.588;12.148;2022-08-03T06:46:34;22.00;99.90
11304;DHT22;5707;49.588;12.148;2022-08-03T06:49:14;22.10;99.90
11304;DHT22;5707;49.588;12.148;2022-08-03T06:51:54;22.30;99.90
11304;DHT22;5707;49.588;12.148;2022-08-03T06:54:35;22.40;99.90
11304;DHT22;5707;49.588;12.148;2022-08-03T06:57:15;22.60;99.90
11304;DHT22;5707;49.588;12.148;2022-08-03T06:59:56;22.80;99.90
11304;DHT22;5707;49.588;12.148;2022-08-03T07:02:39;22.90;99.90
11304;DHT22;5707;49.588;12.148;2022-08-03T07:05:19;23.10;99.90
11304;DHT22;5707;49.588;12.148;2022-08-03T07:08:01;23.30;99.90
11304;DHT22;5707;49.588;12.148;2022-08-03T07:10:40;23.60;99.90
11304;DHT22;5707;49.588;12.148;2022-08-03T07:13:20;23.70;99.90
11304;DHT22;5707;49.588;12.148;2022-08-03T07:16:00;24.00;99.90
11304;DHT22;5707;49.588;12.148;2022-08-03T07:18:40;24.20;99.90
11304;DHT22;5707;49.588;12.148;2022-08-03T07:21:20;24.30;99.90
11304;DHT22;5707;49.588;12.148;2022-08-03T07:24:00;24.50;99.90
11304;DHT22;5707;49.588;12.148;2022-08-03T07:26:39;24.50;99.90
11304;DHT22;5707;49.588;12.148;2022-08-03T07:29:19;24.60;99.90
11304;DHT22;5707;49.588;12.148;2022-08-03T07:31:59;24.70;99.90
11304;DHT22;5707;49.588;12.148;2022-08-03T07:34:39;24.80;99.90
11304;DHT22;5707;49.588;12.148;2022-08-03T07:37:19;25.00;99.90
11304;DHT22;5707;49.588;12.148;2022-08-03T07:39:59;25.00;99.90
11304;DHT22;5707;49.588;12.148;2022-08-03T07:42:38;25.10;99.90
11304;DHT22;5707;49.588;12.148;2022-08-03T07:45:18;25.10;99.90
11304;DHT22;5707;49.588;12.148;2022-08-03T07:47:58;25.20;99.90
11304;DHT22;5707;49.588;12.148;2022-08-03T07:50:38;25.30;99.90
11304;DHT22;5707;49.588;12.148;2022-08-03T07:53:18;25.50;99.90
11304;DHT22;5707;49.588;12.148;2022-08-03T07:55:58;25.70;99.90
11304;DHT22;5707;49.588;12.148;2022-08-03T07:58:37;25.70;99.90
11304;DHT22;5707;49.588;12.148;2022-08-03T08:01:17;25.80;99.90
11304;DHT22;5707;49.588;12.148;2022-08-03T08:03:57;25.80;99.90
11304;DHT22;5707;49.588;12.148;2022-08-03T08:06:37;25.90;99.90
11304;DHT22;5707;49.588;12.148;2022-08-03T08:09:17;26.00;99.90
11304;DHT22;5707;49.588;12.148;2022-08-03T08:11:56;26.10;99.90
11304;DHT22;5707;49.588;12.148;2022-08-03T08:14:37;26.20;99.90
11304;DHT22;5707;49.588;12.148;2022-08-03T08:17:16;26.30;99.90
11304;DHT22;5707;49.588;12.148;2022-08-03T08:19:58;26.30;99.90
11304;DHT22;5707;49.588;12.148;2022-08-03T08:22:37;26.50;99.90
11304;DHT22;5707;49.588;12.148;2022-08-03T08:25:19;26.60;99.90
11304;DHT22;5707;49.588;12.148;2022-08-03T08:27:59;26.70;99.90
11304;DHT22;5707;49.588;12.148;2022-08-03T08:30:42;26.80;99.90
11304;DHT22;5707;49.588;12.148;2022-08-03T08:33:22;26.80;99.90
11304;DHT22;5707;49.588;12.148;2022-08-03T08:36:01;26.90;99.00
11304;DHT22;5707;49.588;12.148;2022-08-03T08:38:41;26.90;99.10
11304;DHT22;5707;49.588;12.148;2022-08-03T08:41:23;27.00;99.90
11304;DHT22;5707;49.588;12.148;2022-08-03T08:44:03;26.90;99.20
11304;DHT22;5707;49.588;12.148;2022-08-03T08:46:45;27.00;98.90
11304;DHT22;5707;49.588;12.148;2022-08-03T08:49:25;27.10;95.20
11304;DHT22;5707;49.588;12.148;2022-08-03T08:52:07;27.30;98.00
11304;DHT22;5707;49.588;12.148;2022-08-03T08:54:48;27.40;96.60
11304;DHT22;5707;49.588;12.148;2022-08-03T08:57:30;27.50;94.50
11304;DHT22;5707;49.588;12.148;2022-08-03T09:00:12;27.60;92.20
11304;DHT22;5707;49.588;12.148;2022-08-03T09:02:52;27.70;91.80
11304;DHT22;5707;49.588;12.148;2022-08-03T09:05:32;27.70;88.50
11304;DHT22;5707;49.588;12.148;2022-08-03T09:08:12;27.70;87.50
11304;DHT22;5707;49.588;12.148;2022-08-03T09:10:52;27.60;90.50
11304;DHT22;5707;49.588;12.148;2022-08-03T09:13:33;27.80;89.70
11304;DHT22;5707;49.588;12.148;2022-08-03T09:16:14;28.00;81.40
11304;DHT22;5707;49.588;12.148;2022-08-03T09:18:55;28.10;76.70
11304;DHT22;5707;49.588;12.148;2022-08-03T09:21:57;28.20;72.80
11304;DHT22;5707;49.588;12.148;2022-08-03T09:24:56;28.20;69.40
11304;DHT22;5707;49.588;12.148;2022-08-03T09:27:41;28.40;67.00
11304;DHT22;5707;49.588;12.148;2022-08-03T09:30:22;28.50;62.50
11304;DHT22;5707;49.588;12.148;2022-08-03T09:33:02;28.70;64.90
11304;DHT22;5707;49.588;12.148;2022-08-03T09:35:44;28.90;58.90
11304;DHT22;5707;49.588;12.148;2022-08-03T09:38:25;28.90;59.00
11304;DHT22;5707;49.588;12.148;2022-08-03T09:41:04;29.00;55.70
11304;DHT22;5707;49.588;12.148;2022-08-03T09:43:55;29.10;54.80
11304;DHT22;5707;49.588;12.148;2022-08-03T09:46:48;29.00;56.10
11304;DHT22;5707;49.588;12.148;2022-08-03T09:49:28;29.00;54.70
11304;DHT22;5707;49.588;12.148;2022-08-03T09:52:14;29.10;52.90
11304;DHT22;5707;49.588;12.148;2022-08-03T09:54:56;29.10;51.20
11304;DHT22;5707;49.588;12.148;2022-08-03T09:57:35;29.30;53.40
11304;DHT22;5707;49.588;12.148;2022-08-03T10:00:16;29.40;50.80
11304;DHT22;5707;49.588;12.148;2022-08-03T10:03:02;29.40;49.80
11304;DHT22;5707;49.588;12.148;2022-08-03T10:05:43;29.40;48.90
11304;DHT22;5707;49.588;12.148;2022-08-03T10:08:23;29.60;51.70
11304;DHT22;5707;49.588;12.148;2022-08-03T10:11:03;29.70;51.40
11304;DHT22;5707;49.588;12.148;2022-08-03T10:13:42;29.50;49.20
11304;DHT22;5707;49.588;12.148;2022-08-03T10:16:22;29.20;48.80
11304;DHT22;5707;49.588;12.148;2022-08-03T10:19:03;29.20;49.90
11304;DHT22;5707;49.588;12.148;2022-08-03T10:21:48;29.20;49.40
11304;DHT22;5707;49.588;12.148;2022-08-03T10:24:30;29.40;50.10
11304;DHT22;5707;49.588;12.148;2022-08-03T10:27:13;29.70;50.30
11304;DHT22;5707;49.588;12.148;2022-08-03T10:29:54;29.90;50.30
11304;DHT22;5707;49.588;12.148;2022-08-03T10:32:36;30.00;46.80
11304;DHT22;5707;49.588;12.148;2022-08-03T10:35:18;30.00;48.00
11304;DHT22;5707;49.588;12.148;2022-08-03T10:37:59;30.00;46.50
11304;DHT22;5707;49.588;12.148;2022-08-03T10:40:40;30.00;46.10
11304;DHT22;5707;49.588;12.148;2022-08-03T10:43:20;30.00;46.80
11304;DHT22;5707;49.588;12.148;2022-08-03T10:46:01;30.10;46.20
11304;DHT22;5707;49.588;12.148;2022-08-03T10:48:43;30.30;46.90
11304;DHT22;5707;49.588;12.148;2022-08-03T10:51:22;30.40;44.30
11304;DHT22;5707;49.588;12.148;2022-08-03T10:54:02;30.40;42.10
11304;DHT22;5707;49.588;12.148;2022-08-03T10:56:42;30.30;45.30
11304;DHT22;5707;49.588;12.148;2022-08-03T10:59:58;30.30;41.90
11304;DHT22;5707;49.588;12.148;2022-08-03T11:05:38;30.10;45.40
11304;DHT22;5707;49.588;12.148;2022-08-03T11:08:23;30.10;44.30
11304;DHT22;5707;49.588;12.148;2022-08-03T11:13:59;30.20;42.90
11304;DHT22;5707;49.588;12.148;2022-08-03T11:16:41;30.40;44.50
11304;DHT22;5707;49.588;12.148;2022-08-03T11:19:22;30.50;41.80
11304;DHT22;5707;49.588;12.148;2022-08-03T11:22:21;30.50;41.20
11304;DHT22;5707;49.588;12.148;2022-08-03T11:25:03;30.60;43.10
11304;DHT22;5707;49.588;12.148;2022-08-03T11:27:43;30.70;40.20
11304;DHT22;5707;49.588;12.148;2022-08-03T11:30:24;30.70;40.20
11304;DHT22;5707;49.588;12.148;2022-08-03T11:33:07;30.70;39.80
11304;DHT22;5707;49.588;12.148;2022-08-03T11:35:58;30.70;41.20
11304;DHT22;5707;49.588;12.148;2022-08-03T11:38:43;30.90;40.70
11304;DHT22;5707;49.588;12.148;2022-08-03T11:41:43;30.90;41.50
11304;DHT22;5707;49.588;12.148;2022-08-03T11:44:41;31.00;42.50
11304;DHT22;5707;49.588;12.148;2022-08-03T11:47:23;31.00;40.70
11304;DHT22;5707;49.588;12.148;2022-08-03T11:50:04;31.10;42.30
11304;DHT22;5707;49.588;12.148;2022-08-03T11:52:43;31.20;41.80
11304;DHT22;5707;49.588;12.148;2022-08-03T11:55:23;31.40;41.10
11304;DHT22;5707;49.588;12.148;2022-08-03T11:58:05;31.40;39.50
11304;DHT22;5707;49.588;12.148;2022-08-03T12:00:44;31.50;42.70
11304;DHT22;5707;49.588;12.148;2022-08-03T12:03:24;31.60;38.70
11304;DHT22;5707;49.588;12.148;2022-08-03T12:06:11;31.60;40.80
11304;DHT22;5707;49.588;12.148;2022-08-03T12:08:52;31.60;40.20
11304;DHT22;5707;49.588;12.148;2022-08-03T12:11:32;31.60;41.50
11304;DHT22;5707;49.588;12.148;2022-08-03T12:14:16;31.60;40.90
11304;DHT22;5707;49.588;12.148;2022-08-03T12:16:56;31.60;39.10
11304;DHT22;5707;49.588;12.148;2022-08-03T12:19:42;31.70;38.90
11304;DHT22;5707;49.588;12.148;2022-08-03T12:22:30;31.40;37.80
11304;DHT22;5707;49.588;12.148;2022-08-03T12:25:17;31.30;38.50
11304;DHT22;5707;49.588;12.148;2022-08-03T12:28:06;31.30;38.50
11304;DHT22;5707;49.588;12.148;2022-08-03T12:30:48;31.50;39.80
11304;DHT22;5707;49.588;12.148;2022-08-03T12:33:29;31.70;38.50
11304;DHT22;5707;49.588;12.148;2022-08-03T12:36:09;31.90;39.30
11304;DHT22;5707;49.588;12.148;2022-08-03T12:38:54;32.10;39.60
11304;DHT22;5707;49.588;12.148;2022-08-03T12:41:35;32.10;39.40
11304;DHT22;5707;49.588;12.148;2022-08-03T12:44:16;32.30;39.00
11304;DHT22;5707;49.588;12.148;2022-08-03T12:47:08;32.50;39.60
11304;DHT22;5707;49.588;12.148;2022-08-03T12:49:50;32.50;37.40
11304;DHT22;5707;49.588;12.148;2022-08-03T12:52:35;32.60;38.80
11304;DHT22;5707;49.588;12.148;2022-08-03T12:55:22;32.80;36.90
11304;DHT22;5707;49.588;12.148;2022-08-03T12:58:04;32.70;37.50
11304;DHT22;5707;49.588;12.148;2022-08-03T13:00:54;32.50;35.70
11304;DHT22;5707;49.588;12.148;2022-08-03T13:03:39;32.50;36.10
11304;DHT22;5707;49.588;12.148;2022-08-03T13:06:19;32.50;35.50
11304;DHT22;5707;49.588;12.148;2022-08-03T13:09:04;32.70;35.00
11304;DHT22;5707;49.588;12.148;2022-08-03T13:11:45;32.70;34.90
11304;DHT22;5707;49.588;12.148;2022-08-03T13:14:24;32.70;35.30
11304;DHT22;5707;49.588;12.148;2022-08-03T13:17:04;32.60;35.00
11304;DHT22;5707;49.588;12.148;2022-08-03T13:19:46;32.20;35.80
11304;DHT22;5707;49.588;12.148;2022-08-03T13:22:27;31.80;38.20
11304;DHT22;5707;49.588;12.148;2022-08-03T13:25:07;31.70;38.40
11304;DHT22;5707;49.588;12.148;2022-08-03T13:27:47;31.80;37.60
11304;DHT22;5707;49.588;12.148;2022-08-03T13:30:27;32.20;36.00
11304;DHT22;5707;49.588;12.148;2022-08-03T13:33:06;32.80;34.70
11304;DHT22;5707;49.588;12.148;2022-08-03T13:35:46;33.20;35.70
11304;DHT22;5707;49.588;12.148;2022-08-03T13:38:26;33.50;37.20
11304;DHT22;5707;49.588;12.148;2022-08-03T13:41:06;33.70;34.10
11304;DHT22;5707;49.588;12.148;2022-08-03T13:43:46;33.70;31.90
11304;DHT22;5707;49.588;12.148;2022-08-03T13:46:26;33.70;31.20
11304;DHT22;5707;49.588;12.148;2022-08-03T13:49:05;33.80;34.20
11304;DHT22;5707;49.588;12.148;2022-08-03T13:51:45;34.10;34.30
11304;DHT22;5707;49.588;12.148;2022-08-03T13:54:25;34.30;34.00
11304;DHT22;5707;49.588;12.148;2022-08-03T13:57:05;34.40;33.80
11304;DHT22;5707;49.588;12.148;2022-08-03T13:59:45;34.40;33.70
11304;DHT22;5707;49.588;12.148;2022-08-03T14:02:25;34.40;34.00
11304;DHT22;5707;49.588;12.148;2022-08-03T14:05:05;34.30;31.70
11304;DHT22;5707;49.588;12.148;2022-08-03T14:07:46;34.20;34.00
11304;DHT22;5707;49.588;12.148;2022-08-03T14:10:27;34.30;30.90
11304;DHT22;5707;49.588;12.148;2022-08-03T14:13:08;34.20;32.10
11304;DHT22;5707;49.588;12.148;2022-08-03T14:15:49;34.20;33.50
11304;DHT22;5707;49.588;12.148;2022-08-03T14:18:30;34.50;33.80
11304;DHT22;5707;49.588;12.148;2022-08-03T14:21:10;34.40;34.10
11304;DHT22;5707;49.588;12.148;2022-08-03T14:23:51;34.00;32.20
11304;DHT22;5707;49.588;12.148;2022-08-03T14:26:31;33.60;33.30
11304;DHT22;5707;49.588;12.148;2022-08-03T14:29:11;33.40;33.20
11304;DHT22;5707;49.588;12.148;2022-08-03T14:31:51;33.50;35.70
11304;DHT22;5707;49.588;12.148;2022-08-03T14:34:31;33.70;31.30
11304;DHT22;5707;49.588;12.148;2022-08-03T14:37:10;33.90;31.00
11304;DHT22;5707;49.588;12.148;2022-08-03T14:39:50;33.90;30.90
11304;DHT22;5707;49.588;12.148;2022-08-03T14:42:30;33.50;30.80
11304;DHT22;5707;49.588;12.148;2022-08-03T14:45:10;33.10;31.90
11304;DHT22;5707;49.588;12.148;2022-08-03T14:47:50;32.80;33.70
11304;DHT22;5707;49.588;12.148;2022-08-03T14:50:30;32.50;32.40
11304;DHT22;5707;49.588;12.148;2022-08-03T14:53:09;32.30;31.90
11304;DHT22;5707;49.588;12.148;2022-08-03T14:55:49;32.70;31.40
11304;DHT22;5707;49.588;12.148;2022-08-03T14:58:31;33.30;31.00
11304;DHT22;5707;49.588;12.148;2022-08-03T15:01:10;33.90;31.10
11304;DHT22;5707;49.588;12.148;2022-08-03T15:03:50;34.40;29.90
11304;DHT22;5707;49.588;12.148;2022-08-03T15:06:30;34.70;33.30
11304;DHT22;5707;49.588;12.148;2022-08-03T15:09:10;35.00;30.50
11304;DHT22;5707;49.588;12.148;2022-08-03T15:11:50;35.00;30.00
11304;DHT22;5707;49.588;12.148;2022-08-03T15:14:30;35.10;29.80
11304;DHT22;5707;49.588;12.148;2022-08-03T15:17:11;34.90;29.50
11304;DHT22;5707;49.588;12.148;2022-08-03T15:19:51;35.00;30.30
11304;DHT22;5707;49.588;12.148;2022-08-03T15:22:31;35.00;29.20
11304;DHT22;5707;49.588;12.148;2022-08-03T15:25:12;35.00;29.60
11304;DHT22;5707;49.588;12.148;2022-08-03T15:27:52;35.30;29.90
11304;DHT22;5707;49.588;12.148;2022-08-03T15:30:32;35.40;31.20
11304;DHT22;5707;49.588;12.148;2022-08-03T15:33:15;35.40;30.00
11304;DHT22;5707;49.588;12.148;2022-08-03T15:35:56;35.20;29.90
11304;DHT22;5707;49.588;12.148;2022-08-03T15:38:38;35.20;30.40
11304;DHT22;5707;49.588;12.148;2022-08-03T15:41:17;35.20;30.00
11304;DHT22;5707;49.588;12.148;2022-08-03T15:43:57;35.20;30.80
11304;DHT22;5707;49.588;12.148;2022-08-03T15:46:37;35.50;29.10
11304;DHT22;5707;49.588;12.148;2022-08-03T15:49:17;36.50;27.30
11304;DHT22;5707;49.588;12.148;2022-08-03T15:51:58;37.90;26.30
11304;DHT22;5707;49.588;12.148;2022-08-03T15:54:38;39.30;26.30
11304;DHT22;5707;49.588;12.148;2022-08-03T15:57:18;40.00;24.80
11304;DHT22;5707;49.588;12.148;2022-08-03T15:59:58;40.20;24.90
11304;DHT22;5707;49.588;12.148;2022-08-03T16:02:38;40.60;24.40
11304;DHT22;5707;49.588;12.148;2022-08-03T16:05:17;41.20;23.10
11304;DHT22;5707;49.588;12.148;2022-08-03T16:07:57;41.00;23.10
11304;DHT22;5707;49.588;12.148;2022-08-03T16:10:37;41.10;22.40
11304;DHT22;5707;49.588;12.148;2022-08-03T16:13:19;41.70;22.80
11304;DHT22;5707;49.588;12.148;2022-08-03T16:15:58;42.00;22.20
11304;DHT22;5707;49.588;12.148;2022-08-03T16:18:41;42.00;21.70
11304;DHT22;5707;49.588;12.148;2022-08-03T16:21:21;42.00;21.40
11304;DHT22;5707;49.588;12.148;2022-08-03T16:24:01;41.70;21.90
11304;DHT22;5707;49.588;12.148;2022-08-03T16:26:43;42.00;21.80
11304;DHT22;5707;49.588;12.148;2022-08-03T16:29:26;40.70;22.50
11304;DHT22;5707;49.588;12.148;2022-08-03T16:32:05;38.70;24.70
11304;DHT22;5707;49.588;12.148;2022-08-03T16:34:47;36.40;25.70
11304;DHT22;5707;49.588;12.148;2022-08-03T16:37:27;35.20;27.90
11304;DHT22;5707;49.588;12.148;2022-08-03T16:40:08;34.30;28.60
11304;DHT22;5707;49.588;12.148;2022-08-03T16:42:48;33.70;30.20
11304;DHT22;5707;49.588;12.148;2022-08-03T16:45:28;33.50;31.60
11304;DHT22;5707;49.588;12.148;2022-08-03T16:48:08;33.60;31.80
11304;DHT22;5707;49.588;12.148;2022-08-03T16:50:47;34.00;32.30
11304;DHT22;5707;49.588;12.148;2022-08-03T16:53:27;34.10;29.60
11304;DHT22;5707;49.588;12.148;2022-08-03T16:56:07;34.00;28.50
11304;DHT22;5707;49.588;12.148;2022-08-03T16:58:48;33.90;29.40
11304;DHT22;5707;49.588;12.148;2022-08-03T17:01:28;33.80;29.60
11304;DHT22;5707;49.588;12.148;2022-08-03T17:04:08;33.60;30.50